Aviation Digital Data Service (ADDS)

Output produced by TAFs form (0342 UTC 24 November 2014)
found at http://aviationweather.gov/adds/tafs/
 
KASE 240137Z 2402/2424 34008KT P6SM -SN SCT025 BKN040 
     TEMPO 2402/2404 3SM -SN SCT015 BKN025 
     FM240800 21005KT 4SM BR VCSH BKN020 OVC050 
     FM241400 31005KT P6SM VCSH BKN030 OVC050